Search for airport 
image banner adimage banner adimage banner ad
image banner ad

CA30 - Commodore Heliport

Located in San Francisco, United States

ICAO - CA30, IATA -

Data provided by Airmate  

General information

Coordinates: N33°40'30" W117°52'23"
Elevation is 77 feet MSL.
 
View others Airports in California

Operational data

Special qualification required
Current time UTC:
Current local time:
METAR: KSNA 211353Z VRB03KT 10SM OVC016 19/13 A2997 RMK AO2 SLP146 T01890133
TAF: KSNA 211140Z 2112/2212 21004KT P6SM OVC012 FM211800 24009KT P6SM FEW015 FM220200 23005KT P6SM SCT013 FM220500 VRB04KT P6SM OVC012
View NOTAMs / SUP AIP / TFR affecting this airport [VIEW]
Communications frequencies: [VIEW]

Runways:

Airport contact information

Address: San Francisco United States

Satellite view of CA30